SGES

Details ICAO SGES (AGT)
Name GUARANI INTL
Region Paraguay
Timezone America/Asuncion (UTC-4.0)
Plans Departing 23
Arriving 22
Stats Elevation 846 ft / 258 m (AMSL)
Location -25.455499° -54.843593°
Runways 1
Magnetic Variation 16.156° W
Sunrise 2018-05-24 10:15:17 UTC / 2018-05-24 06:15:17 Local
Sunset 2018-05-24 21:00:02 UTC / 2018-05-24 17:00:02 Local
Advertisement - Login to hide

Runways

ID Width Length Bearing (true) Bearing (mag) Surface Threshold Offset Overrun Length
05 148 ft / 45 m 11,175 ft / 3,406 m 40.64° 56.80° Asphalt 0 ft / 0 m 197 ft / 60 m
23 148 ft / 45 m 11,175 ft / 3,406 m 220.63° 236.79° Asphalt 0 ft / 0 m 197 ft / 60 m

Approach Navaids

Runway Type Ident Frequency Range Bearing (true) Bearing (mag) Slope Elevation
23 Localiser ICES 111.30 MHz 18 nm / 33 km 220.63° 236.79° - 846 ft / 258 m (AMSL)
23 Glidescope ICES 111.30 MHz 10 nm / 19 km 220.63° 236.79° 3.00° 804 ft / 245 m (AMSL)

Map

Weather


0- 5 10 15 20 25 30 35+ Temperature / ° C

Clouds and Precipitation
Forecast for 2018-05-25 00:00 UTC. Updated 3 hours ago

Ground ~20,000 ft ~40,000 ft Winds

METAR

SGES 250100Z 16002KT 9999 SCT020 BKN070 17/15 Q1021

TAF

TAF SGES 241745Z 2418/2518 36003KT CAVOK TX23/2419Z TN10/2509Z

Frequencies

Ground 121.70 MHz GND
Approach 119.30 MHz APP
Tower 118.10 MHz TWR
Approach 120.60 MHz APP
Warning: Do not use this data for real-world aviation or navigation. No guarantee of current accuracy is given.